sensor_id;sensor_type;location;lat;lon;timestamp;P1;durP1;ratioP1;P2;durP2;ratioP2
69256;SDS011;56376;53.356;-1.748;2024-03-08T00:01:06;28.10;;;16.90;;
69256;SDS011;56376;53.356;-1.748;2024-03-08T00:03:32;28.70;;;17.33;;
69256;SDS011;56376;53.356;-1.748;2024-03-08T00:05:57;26.10;;;16.07;;
69256;SDS011;56376;53.356;-1.748;2024-03-08T00:08:23;26.37;;;16.67;;
69256;SDS011;56376;53.356;-1.748;2024-03-08T00:10:49;27.77;;;16.17;;
69256;SDS011;56376;53.356;-1.748;2024-03-08T00:13:15;31.00;;;17.97;;
69256;SDS011;56376;53.356;-1.748;2024-03-08T00:15:41;25.80;;;16.10;;
69256;SDS011;56376;53.356;-1.748;2024-03-08T00:18:06;31.20;;;18.40;;
69256;SDS011;56376;53.356;-1.748;2024-03-08T00:20:32;28.57;;;17.23;;
69256;SDS011;56376;53.356;-1.748;2024-03-08T00:23:00;35.07;;;19.27;;
69256;SDS011;56376;53.356;-1.748;2024-03-08T00:25:26;28.57;;;16.83;;
69256;SDS011;56376;53.356;-1.748;2024-03-08T00:27:51;28.23;;;17.73;;
69256;SDS011;56376;53.356;-1.748;2024-03-08T00:30:20;31.80;;;18.30;;
69256;SDS011;56376;53.356;-1.748;2024-03-08T00:32:49;28.93;;;19.67;;
69256;SDS011;56376;53.356;-1.748;2024-03-08T00:35:14;36.73;;;19.37;;
69256;SDS011;56376;53.356;-1.748;2024-03-08T00:37:40;27.63;;;18.07;;
69256;SDS011;56376;53.356;-1.748;2024-03-08T00:40:12;30.07;;;19.07;;
69256;SDS011;56376;53.356;-1.748;2024-03-08T00:42:38;32.30;;;19.30;;
69256;SDS011;56376;53.356;-1.748;2024-03-08T00:45:05;33.70;;;20.97;;
69256;SDS011;56376;53.356;-1.748;2024-03-08T00:47:31;30.40;;;20.00;;
69256;SDS011;56376;53.356;-1.748;2024-03-08T00:49:57;35.70;;;21.27;;
69256;SDS011;56376;53.356;-1.748;2024-03-08T00:52:22;36.33;;;19.93;;
69256;SDS011;56376;53.356;-1.748;2024-03-08T00:54:49;30.87;;;18.40;;
69256;SDS011;56376;53.356;-1.748;2024-03-08T00:57:15;31.20;;;19.77;;
69256;SDS011;56376;53.356;-1.748;2024-03-08T00:59:40;31.53;;;18.70;;
69256;SDS011;56376;53.356;-1.748;2024-03-08T01:02:06;33.73;;;20.13;;
69256;SDS011;56376;53.356;-1.748;2024-03-08T01:07:02;33.00;;;21.17;;
69256;SDS011;56376;53.356;-1.748;2024-03-08T01:09:28;33.43;;;20.77;;
69256;SDS011;56376;53.356;-1.748;2024-03-08T01:11:54;36.57;;;21.73;;
69256;SDS011;56376;53.356;-1.748;2024-03-08T01:14:21;37.73;;;22.87;;
69256;SDS011;56376;53.356;-1.748;2024-03-08T01:16:54;35.35;;;20.65;;
69256;SDS011;56376;53.356;-1.748;2024-03-08T01:19:20;29.47;;;20.10;;
69256;SDS011;56376;53.356;-1.748;2024-03-08T01:21:45;33.77;;;21.93;;
69256;SDS011;56376;53.356;-1.748;2024-03-08T01:24:11;36.50;;;22.77;;
69256;SDS011;56376;53.356;-1.748;2024-03-08T01:26:37;30.47;;;20.10;;
69256;SDS011;56376;53.356;-1.748;2024-03-08T01:29:03;37.10;;;23.20;;
69256;SDS011;56376;53.356;-1.748;2024-03-08T01:31:29;37.27;;;23.13;;
69256;SDS011;56376;53.356;-1.748;2024-03-08T01:33:58;33.77;;;21.73;;
69256;SDS011;56376;53.356;-1.748;2024-03-08T01:36:24;30.53;;;20.47;;
69256;SDS011;56376;53.356;-1.748;2024-03-08T01:38:50;32.87;;;22.13;;
69256;SDS011;56376;53.356;-1.748;2024-03-08T01:41:16;36.10;;;23.43;;
69256;SDS011;56376;53.356;-1.748;2024-03-08T01:43:44;44.33;;;25.83;;
69256;SDS011;56376;53.356;-1.748;2024-03-08T01:46:10;39.43;;;26.40;;
69256;SDS011;56376;53.356;-1.748;2024-03-08T01:48:40;37.13;;;24.13;;
69256;SDS011;56376;53.356;-1.748;2024-03-08T01:51:06;37.30;;;22.83;;
69256;SDS011;56376;53.356;-1.748;2024-03-08T01:53:33;34.60;;;23.33;;
69256;SDS011;56376;53.356;-1.748;2024-03-08T01:56:00;32.20;;;21.07;;
69256;SDS011;56376;53.356;-1.748;2024-03-08T01:58:27;36.20;;;23.57;;
69256;SDS011;56376;53.356;-1.748;2024-03-08T02:00:54;37.50;;;21.73;;
69256;SDS011;56376;53.356;-1.748;2024-03-08T02:03:21;35.67;;;22.47;;
69256;SDS011;56376;53.356;-1.748;2024-03-08T02:05:47;29.03;;;20.23;;
69256;SDS011;56376;53.356;-1.748;2024-03-08T02:08:13;31.17;;;20.60;;
69256;SDS011;56376;53.356;-1.748;2024-03-08T02:10:43;31.03;;;19.13;;
69256;SDS011;56376;53.356;-1.748;2024-03-08T02:13:10;36.37;;;21.97;;
69256;SDS011;56376;53.356;-1.748;2024-03-08T02:18:37;31.40;;;21.27;;
69256;SDS011;56376;53.356;-1.748;2024-03-08T02:21:05;30.03;;;20.27;;
69256;SDS011;56376;53.356;-1.748;2024-03-08T02:23:34;28.40;;;20.13;;
69256;SDS011;56376;53.356;-1.748;2024-03-08T02:26:00;32.57;;;21.47;;
69256;SDS011;56376;53.356;-1.748;2024-03-08T02:28:26;31.03;;;20.67;;
69256;SDS011;56376;53.356;-1.748;2024-03-08T02:30:51;28.73;;;21.70;;
69256;SDS011;56376;53.356;-1.748;2024-03-08T02:33:21;31.80;;;21.83;;
69256;SDS011;56376;53.356;-1.748;2024-03-08T02:35:48;32.93;;;21.53;;
69256;SDS011;56376;53.356;-1.748;2024-03-08T02:38:14;34.60;;;22.83;;
69256;SDS011;56376;53.356;-1.748;2024-03-08T02:40:45;31.63;;;20.57;;
69256;SDS011;56376;53.356;-1.748;2024-03-08T02:43:12;33.47;;;20.93;;
69256;SDS011;56376;53.356;-1.748;2024-03-08T02:45:38;30.10;;;21.10;;
69256;SDS011;56376;53.356;-1.748;2024-03-08T02:48:04;30.00;;;20.90;;
69256;SDS011;56376;53.356;-1.748;2024-03-08T02:50:31;29.30;;;19.73;;
69256;SDS011;56376;53.356;-1.748;2024-03-08T02:52:58;32.43;;;20.13;;
69256;SDS011;56376;53.356;-1.748;2024-03-08T02:55:24;27.87;;;20.67;;
69256;SDS011;56376;53.356;-1.748;2024-03-08T02:57:51;25.40;;;19.37;;
69256;SDS011;56376;53.356;-1.748;2024-03-08T03:00:17;30.87;;;21.10;;
69256;SDS011;56376;53.356;-1.748;2024-03-08T03:02:44;33.87;;;22.93;;
69256;SDS011;56376;53.356;-1.748;2024-03-08T03:05:11;34.17;;;21.43;;
69256;SDS011;56376;53.356;-1.748;2024-03-08T03:07:36;31.37;;;21.00;;
69256;SDS011;56376;53.356;-1.748;2024-03-08T03:10:03;31.47;;;21.07;;
69256;SDS011;56376;53.356;-1.748;2024-03-08T03:12:29;28.73;;;20.07;;
69256;SDS011;56376;53.356;-1.748;2024-03-08T03:14:59;27.50;;;20.63;;
69256;SDS011;56376;53.356;-1.748;2024-03-08T03:17:25;34.20;;;23.33;;
69256;SDS011;56376;53.356;-1.748;2024-03-08T03:19:51;27.77;;;19.97;;
69256;SDS011;56376;53.356;-1.748;2024-03-08T03:22:17;33.60;;;21.37;;
69256;SDS011;56376;53.356;-1.748;2024-03-08T03:24:44;29.93;;;20.50;;
69256;SDS011;56376;53.356;-1.748;2024-03-08T03:27:11;37.87;;;22.07;;
69256;SDS011;56376;53.356;-1.748;2024-03-08T03:29:43;34.30;;;21.83;;
69256;SDS011;56376;53.356;-1.748;2024-03-08T03:32:12;28.60;;;19.33;;
69256;SDS011;56376;53.356;-1.748;2024-03-08T03:34:39;30.13;;;20.10;;
69256;SDS011;56376;53.356;-1.748;2024-03-08T03:37:05;31.23;;;20.70;;
69256;SDS011;56376;53.356;-1.748;2024-03-08T03:39:32;36.93;;;22.77;;
69256;SDS011;56376;53.356;-1.748;2024-03-08T03:41:59;35.03;;;22.30;;
69256;SDS011;56376;53.356;-1.748;2024-03-08T03:44:27;33.33;;;22.00;;
69256;SDS011;56376;53.356;-1.748;2024-03-08T03:46:53;31.40;;;20.33;;
69256;SDS011;56376;53.356;-1.748;2024-03-08T03:49:19;33.07;;;22.20;;
69256;SDS011;56376;53.356;-1.748;2024-03-08T03:51:45;34.63;;;23.70;;
69256;SDS011;56376;53.356;-1.748;2024-03-08T03:54:12;29.30;;;21.10;;
69256;SDS011;56376;53.356;-1.748;2024-03-08T03:56:38;32.53;;;22.77;;
69256;SDS011;56376;53.356;-1.748;2024-03-08T03:59:05;31.87;;;21.10;;
69256;SDS011;56376;53.356;-1.748;2024-03-08T04:01:31;32.77;;;22.87;;
69256;SDS011;56376;53.356;-1.748;2024-03-08T04:03:57;29.80;;;20.07;;
69256;SDS011;56376;53.356;-1.748;2024-03-08T04:06:23;27.33;;;18.20;;
69256;SDS011;56376;53.356;-1.748;2024-03-08T04:08:49;35.80;;;22.63;;
69256;SDS011;56376;53.356;-1.748;2024-03-08T04:11:14;40.40;;;23.63;;
69256;SDS011;56376;53.356;-1.748;2024-03-08T04:13:42;38.00;;;23.03;;
69256;SDS011;56376;53.356;-1.748;2024-03-08T04:16:08;37.27;;;22.90;;
69256;SDS011;56376;53.356;-1.748;2024-03-08T04:18:34;34.90;;;22.30;;
69256;SDS011;56376;53.356;-1.748;2024-03-08T04:21:01;35.23;;;21.67;;
69256;SDS011;56376;53.356;-1.748;2024-03-08T04:23:29;33.33;;;21.73;;
69256;SDS011;56376;53.356;-1.748;2024-03-08T04:25:55;41.07;;;23.87;;
69256;SDS011;56376;53.356;-1.748;2024-03-08T04:28:20;38.83;;;23.63;;
69256;SDS011;56376;53.356;-1.748;2024-03-08T04:30:46;42.07;;;24.97;;
69256;SDS011;56376;53.356;-1.748;2024-03-08T04:33:12;36.73;;;24.93;;
69256;SDS011;56376;53.356;-1.748;2024-03-08T04:35:43;37.97;;;25.20;;
69256;SDS011;56376;53.356;-1.748;2024-03-08T04:38:10;36.97;;;23.87;;
69256;SDS011;56376;53.356;-1.748;2024-03-08T04:40:36;38.70;;;25.43;;
69256;SDS011;56376;53.356;-1.748;2024-03-08T04:43:02;39.60;;;23.70;;
69256;SDS011;56376;53.356;-1.748;2024-03-08T04:45:27;34.37;;;22.87;;
69256;SDS011;56376;53.356;-1.748;2024-03-08T04:47:53;38.30;;;25.10;;
69256;SDS011;56376;53.356;-1.748;2024-03-08T04:50:18;33.70;;;23.20;;
69256;SDS011;56376;53.356;-1.748;2024-03-08T04:52:44;37.53;;;24.37;;
69256;SDS011;56376;53.356;-1.748;2024-03-08T04:55:09;36.97;;;25.17;;
69256;SDS011;56376;53.356;-1.748;2024-03-08T04:57:35;33.63;;;23.43;;
69256;SDS011;56376;53.356;-1.748;2024-03-08T05:00:03;43.63;;;25.40;;
69256;SDS011;56376;53.356;-1.748;2024-03-08T05:02:39;37.53;;;24.93;;
69256;SDS011;56376;53.356;-1.748;2024-03-08T05:05:05;41.47;;;25.43;;
69256;SDS011;56376;53.356;-1.748;2024-03-08T05:07:31;36.73;;;24.03;;
69256;SDS011;56376;53.356;-1.748;2024-03-08T05:09:58;44.47;;;27.33;;
69256;SDS011;56376;53.356;-1.748;2024-03-08T05:12:24;40.40;;;25.23;;
69256;SDS011;56376;53.356;-1.748;2024-03-08T05:17:35;44.23;;;25.77;;
69256;SDS011;56376;53.356;-1.748;2024-03-08T05:20:02;42.47;;;25.93;;
69256;SDS011;56376;53.356;-1.748;2024-03-08T05:22:28;43.07;;;26.80;;
69256;SDS011;56376;53.356;-1.748;2024-03-08T05:24:54;38.93;;;24.13;;
69256;SDS011;56376;53.356;-1.748;2024-03-08T05:27:20;34.77;;;24.63;;
69256;SDS011;56376;53.356;-1.748;2024-03-08T05:29:46;41.73;;;26.27;;
69256;SDS011;56376;53.356;-1.748;2024-03-08T05:32:11;41.73;;;26.23;;
69256;SDS011;56376;53.356;-1.748;2024-03-08T05:34:37;36.93;;;25.33;;
69256;SDS011;56376;53.356;-1.748;2024-03-08T05:37:03;42.07;;;26.77;;
69256;SDS011;56376;53.356;-1.748;2024-03-08T05:39:29;40.83;;;26.23;;
69256;SDS011;56376;53.356;-1.748;2024-03-08T05:41:54;42.23;;;25.80;;
69256;SDS011;56376;53.356;-1.748;2024-03-08T05:44:21;41.53;;;26.37;;
69256;SDS011;56376;53.356;-1.748;2024-03-08T05:46:46;40.27;;;25.43;;
69256;SDS011;56376;53.356;-1.748;2024-03-08T05:49:12;41.47;;;25.53;;
69256;SDS011;56376;53.356;-1.748;2024-03-08T05:51:38;42.67;;;27.47;;
69256;SDS011;56376;53.356;-1.748;2024-03-08T05:54:07;40.23;;;26.13;;
69256;SDS011;56376;53.356;-1.748;2024-03-08T05:56:35;39.90;;;25.57;;
69256;SDS011;56376;53.356;-1.748;2024-03-08T05:59:01;43.53;;;28.00;;
69256;SDS011;56376;53.356;-1.748;2024-03-08T06:01:27;37.30;;;25.07;;
69256;SDS011;56376;53.356;-1.748;2024-03-08T06:03:53;36.77;;;25.20;;
69256;SDS011;56376;53.356;-1.748;2024-03-08T06:06:25;44.00;;;27.03;;
69256;SDS011;56376;53.356;-1.748;2024-03-08T06:08:51;40.73;;;25.33;;
69256;SDS011;56376;53.356;-1.748;2024-03-08T06:11:18;43.77;;;27.83;;
69256;SDS011;56376;53.356;-1.748;2024-03-08T06:13:44;41.17;;;26.70;;
69256;SDS011;56376;53.356;-1.748;2024-03-08T06:16:10;47.40;;;29.43;;
69256;SDS011;56376;53.356;-1.748;2024-03-08T06:18:36;43.77;;;29.53;;
69256;SDS011;56376;53.356;-1.748;2024-03-08T06:21:05;44.40;;;29.77;;
69256;SDS011;56376;53.356;-1.748;2024-03-08T06:23:31;43.93;;;29.77;;
69256;SDS011;56376;53.356;-1.748;2024-03-08T06:25:57;44.37;;;27.70;;
69256;SDS011;56376;53.356;-1.748;2024-03-08T06:28:23;43.10;;;28.43;;
69256;SDS011;56376;53.356;-1.748;2024-03-08T06:30:48;48.33;;;27.53;;
69256;SDS011;56376;53.356;-1.748;2024-03-08T06:33:17;43.10;;;27.70;;
69256;SDS011;56376;53.356;-1.748;2024-03-08T06:35:43;42.07;;;27.70;;
69256;SDS011;56376;53.356;-1.748;2024-03-08T06:38:08;40.47;;;26.13;;
69256;SDS011;56376;53.356;-1.748;2024-03-08T06:40:34;45.00;;;29.70;;
69256;SDS011;56376;53.356;-1.748;2024-03-08T06:43:00;42.40;;;28.43;;
69256;SDS011;56376;53.356;-1.748;2024-03-08T06:45:25;46.43;;;29.70;;
69256;SDS011;56376;53.356;-1.748;2024-03-08T06:47:51;48.73;;;30.37;;
69256;SDS011;56376;53.356;-1.748;2024-03-08T06:50:16;48.10;;;30.00;;
69256;SDS011;56376;53.356;-1.748;2024-03-08T06:52:42;44.60;;;28.70;;
69256;SDS011;56376;53.356;-1.748;2024-03-08T06:55:09;47.87;;;30.00;;
69256;SDS011;56376;53.356;-1.748;2024-03-08T06:57:41;41.10;;;28.57;;
69256;SDS011;56376;53.356;-1.748;2024-03-08T07:00:07;43.10;;;29.13;;
69256;SDS011;56376;53.356;-1.748;2024-03-08T07:02:40;42.10;;;27.00;;
69256;SDS011;56376;53.356;-1.748;2024-03-08T07:05:07;43.23;;;28.10;;
69256;SDS011;56376;53.356;-1.748;2024-03-08T07:07:36;40.73;;;26.67;;
69256;SDS011;56376;53.356;-1.748;2024-03-08T07:10:02;48.43;;;31.23;;
69256;SDS011;56376;53.356;-1.748;2024-03-08T07:12:28;50.67;;;30.83;;
69256;SDS011;56376;53.356;-1.748;2024-03-08T07:14:54;47.63;;;30.27;;
69256;SDS011;56376;53.356;-1.748;2024-03-08T07:17:20;43.73;;;26.90;;
69256;SDS011;56376;53.356;-1.748;2024-03-08T07:19:46;43.97;;;27.90;;
69256;SDS011;56376;53.356;-1.748;2024-03-08T07:22:11;43.70;;;28.77;;
69256;SDS011;56376;53.356;-1.748;2024-03-08T07:24:39;52.63;;;31.60;;
69256;SDS011;56376;53.356;-1.748;2024-03-08T07:27:23;46.73;;;31.30;;
69256;SDS011;56376;53.356;-1.748;2024-03-08T07:29:48;47.33;;;30.27;;
69256;SDS011;56376;53.356;-1.748;2024-03-08T07:32:14;46.50;;;28.97;;
69256;SDS011;56376;53.356;-1.748;2024-03-08T07:34:49;46.33;;;29.33;;
69256;SDS011;56376;53.356;-1.748;2024-03-08T07:37:16;49.77;;;31.53;;
69256;SDS011;56376;53.356;-1.748;2024-03-08T07:39:42;49.17;;;31.40;;
69256;SDS011;56376;53.356;-1.748;2024-03-08T07:42:08;56.30;;;34.50;;
69256;SDS011;56376;53.356;-1.748;2024-03-08T07:44:36;46.83;;;31.10;;
69256;SDS011;56376;53.356;-1.748;2024-03-08T07:47:01;44.07;;;29.53;;
69256;SDS011;56376;53.356;-1.748;2024-03-08T07:49:28;49.33;;;31.43;;
69256;SDS011;56376;53.356;-1.748;2024-03-08T07:51:55;49.73;;;31.50;;
69256;SDS011;56376;53.356;-1.748;2024-03-08T07:54:21;50.27;;;31.03;;
69256;SDS011;56376;53.356;-1.748;2024-03-08T07:56:46;45.10;;;29.30;;
69256;SDS011;56376;53.356;-1.748;2024-03-08T07:59:12;46.67;;;29.80;;
69256;SDS011;56376;53.356;-1.748;2024-03-08T08:01:37;48.30;;;29.57;;
69256;SDS011;56376;53.356;-1.748;2024-03-08T08:04:04;44.93;;;30.13;;
69256;SDS011;56376;53.356;-1.748;2024-03-08T08:06:30;44.73;;;28.50;;
69256;SDS011;56376;53.356;-1.748;2024-03-08T08:08:59;46.20;;;28.87;;
69256;SDS011;56376;53.356;-1.748;2024-03-08T08:11:28;50.67;;;30.57;;
69256;SDS011;56376;53.356;-1.748;2024-03-08T08:13:54;45.90;;;28.47;;
69256;SDS011;56376;53.356;-1.748;2024-03-08T08:16:22;47.53;;;30.47;;
69256;SDS011;56376;53.356;-1.748;2024-03-08T08:18:48;43.83;;;27.93;;
69256;SDS011;56376;53.356;-1.748;2024-03-08T08:21:15;48.63;;;31.33;;
69256;SDS011;56376;53.356;-1.748;2024-03-08T08:23:43;44.90;;;29.20;;
69256;SDS011;56376;53.356;-1.748;2024-03-08T08:26:08;48.10;;;33.60;;
69256;SDS011;56376;53.356;-1.748;2024-03-08T08:28:36;45.13;;;29.67;;
69256;SDS011;56376;53.356;-1.748;2024-03-08T08:31:03;48.60;;;29.80;;
69256;SDS011;56376;53.356;-1.748;2024-03-08T08:33:30;43.33;;;28.70;;
69256;SDS011;56376;53.356;-1.748;2024-03-08T08:35:55;48.40;;;28.93;;
69256;SDS011;56376;53.356;-1.748;2024-03-08T08:38:21;44.53;;;26.80;;
69256;SDS011;56376;53.356;-1.748;2024-03-08T08:40:47;47.67;;;28.23;;
69256;SDS011;56376;53.356;-1.748;2024-03-08T08:43:13;39.17;;;27.07;;
69256;SDS011;56376;53.356;-1.748;2024-03-08T08:45:39;47.93;;;29.40;;
69256;SDS011;56376;53.356;-1.748;2024-03-08T08:48:05;44.17;;;27.87;;
69256;SDS011;56376;53.356;-1.748;2024-03-08T08:50:31;37.57;;;25.30;;
69256;SDS011;56376;53.356;-1.748;2024-03-08T08:52:59;49.80;;;27.23;;
69256;SDS011;56376;53.356;-1.748;2024-03-08T08:55:25;47.73;;;28.57;;
69256;SDS011;56376;53.356;-1.748;2024-03-08T08:57:51;39.43;;;25.47;;
69256;SDS011;56376;53.356;-1.748;2024-03-08T09:00:17;40.60;;;24.53;;
69256;SDS011;56376;53.356;-1.748;2024-03-08T09:02:46;48.07;;;27.77;;
69256;SDS011;56376;53.356;-1.748;2024-03-08T09:05:13;40.83;;;27.03;;
69256;SDS011;56376;53.356;-1.748;2024-03-08T09:07:44;40.67;;;27.03;;
69256;SDS011;56376;53.356;-1.748;2024-03-08T09:10:10;45.93;;;27.10;;
69256;SDS011;56376;53.356;-1.748;2024-03-08T09:12:37;39.37;;;25.70;;
69256;SDS011;56376;53.356;-1.748;2024-03-08T09:15:05;39.33;;;24.50;;
69256;SDS011;56376;53.356;-1.748;2024-03-08T09:17:33;39.37;;;25.43;;
69256;SDS011;56376;53.356;-1.748;2024-03-08T09:19:59;37.43;;;25.57;;
69256;SDS011;56376;53.356;-1.748;2024-03-08T09:22:24;39.57;;;24.20;;
69256;SDS011;56376;53.356;-1.748;2024-03-08T09:24:51;40.60;;;25.27;;
69256;SDS011;56376;53.356;-1.748;2024-03-08T09:27:16;44.00;;;27.23;;
69256;SDS011;56376;53.356;-1.748;2024-03-08T09:29:43;35.13;;;23.77;;
69256;SDS011;56376;53.356;-1.748;2024-03-08T09:32:09;38.83;;;24.47;;
69256;SDS011;56376;53.356;-1.748;2024-03-08T09:34:37;38.77;;;25.20;;
69256;SDS011;56376;53.356;-1.748;2024-03-08T09:37:03;39.90;;;25.53;;
69256;SDS011;56376;53.356;-1.748;2024-03-08T09:39:29;36.20;;;23.80;;
69256;SDS011;56376;53.356;-1.748;2024-03-08T09:41:55;41.00;;;24.13;;
69256;SDS011;56376;53.356;-1.748;2024-03-08T09:44:21;33.83;;;22.17;;
69256;SDS011;56376;53.356;-1.748;2024-03-08T09:46:48;38.77;;;23.93;;
69256;SDS011;56376;53.356;-1.748;2024-03-08T09:49:18;42.47;;;24.03;;
69256;SDS011;56376;53.356;-1.748;2024-03-08T09:51:44;39.00;;;24.07;;
69256;SDS011;56376;53.356;-1.748;2024-03-08T09:54:11;34.97;;;22.53;;
69256;SDS011;56376;53.356;-1.748;2024-03-08T09:56:38;34.90;;;23.77;;
69256;SDS011;56376;53.356;-1.748;2024-03-08T09:59:06;44.53;;;27.37;;
69256;SDS011;56376;53.356;-1.748;2024-03-08T10:01:51;34.17;;;23.33;;
69256;SDS011;56376;53.356;-1.748;2024-03-08T10:04:24;38.03;;;23.97;;
69256;SDS011;56376;53.356;-1.748;2024-03-08T10:06:53;39.37;;;23.90;;
69256;SDS011;56376;53.356;-1.748;2024-03-08T10:09:19;37.43;;;23.77;;
69256;SDS011;56376;53.356;-1.748;2024-03-08T10:11:45;33.90;;;22.30;;
69256;SDS011;56376;53.356;-1.748;2024-03-08T10:14:12;30.90;;;21.53;;
69256;SDS011;56376;53.356;-1.748;2024-03-08T10:16:38;35.97;;;23.47;;
69256;SDS011;56376;53.356;-1.748;2024-03-08T10:19:04;36.40;;;22.80;;
69256;SDS011;56376;53.356;-1.748;2024-03-08T10:21:31;41.07;;;23.43;;
69256;SDS011;56376;53.356;-1.748;2024-03-08T10:23:58;33.40;;;21.40;;
69256;SDS011;56376;53.356;-1.748;2024-03-08T10:26:24;38.80;;;22.70;;
69256;SDS011;56376;53.356;-1.748;2024-03-08T10:28:50;38.37;;;21.10;;
69256;SDS011;56376;53.356;-1.748;2024-03-08T10:31:18;32.07;;;21.87;;
69256;SDS011;56376;53.356;-1.748;2024-03-08T10:33:47;31.33;;;21.27;;
69256;SDS011;56376;53.356;-1.748;2024-03-08T10:36:13;33.33;;;21.67;;
69256;SDS011;56376;53.356;-1.748;2024-03-08T10:38:40;31.53;;;20.40;;
69256;SDS011;56376;53.356;-1.748;2024-03-08T10:41:07;39.37;;;23.27;;
69256;SDS011;56376;53.356;-1.748;2024-03-08T10:46:36;30.10;;;21.83;;
69256;SDS011;56376;53.356;-1.748;2024-03-08T10:49:08;34.83;;;22.00;;
69256;SDS011;56376;53.356;-1.748;2024-03-08T10:51:40;32.20;;;21.88;;
69256;SDS011;56376;53.356;-1.748;2024-03-08T10:54:08;32.80;;;22.40;;
69256;SDS011;56376;53.356;-1.748;2024-03-08T10:56:36;33.87;;;20.33;;
69256;SDS011;56376;53.356;-1.748;2024-03-08T10:59:01;32.50;;;22.23;;
69256;SDS011;56376;53.356;-1.748;2024-03-08T11:01:29;36.10;;;20.43;;
69256;SDS011;56376;53.356;-1.748;2024-03-08T11:03:55;36.60;;;21.63;;
69256;SDS011;56376;53.356;-1.748;2024-03-08T11:12:27;29.33;;;21.03;;
69256;SDS011;56376;53.356;-1.748;2024-03-08T11:14:52;33.37;;;22.20;;
69256;SDS011;56376;53.356;-1.748;2024-03-08T11:17:26;29.80;;;20.63;;
69256;SDS011;56376;53.356;-1.748;2024-03-08T11:20:18;29.40;;;21.00;;
69256;SDS011;56376;53.356;-1.748;2024-03-08T11:22:49;31.03;;;21.40;;
69256;SDS011;56376;53.356;-1.748;2024-03-08T11:25:30;32.67;;;21.77;;
69256;SDS011;56376;53.356;-1.748;2024-03-08T11:30:46;34.00;;;21.03;;
69256;SDS011;56376;53.356;-1.748;2024-03-08T11:33:24;29.40;;;19.70;;
69256;SDS011;56376;53.356;-1.748;2024-03-08T11:35:57;28.87;;;20.23;;
69256;SDS011;56376;53.356;-1.748;2024-03-08T11:38:42;35.83;;;22.50;;
69256;SDS011;56376;53.356;-1.748;2024-03-08T11:41:14;30.23;;;20.63;;
69256;SDS011;56376;53.356;-1.748;2024-03-08T11:43:47;34.60;;;21.73;;
69256;SDS011;56376;53.356;-1.748;2024-03-08T11:46:14;29.13;;;20.37;;
69256;SDS011;56376;53.356;-1.748;2024-03-08T11:48:41;30.33;;;20.20;;
69256;SDS011;56376;53.356;-1.748;2024-03-08T11:51:14;28.13;;;21.20;;
69256;SDS011;56376;53.356;-1.748;2024-03-08T11:53:42;30.30;;;20.27;;
69256;SDS011;56376;53.356;-1.748;2024-03-08T11:56:11;31.87;;;21.50;;
69256;SDS011;56376;53.356;-1.748;2024-03-08T11:58:38;29.83;;;21.10;;
69256;SDS011;56376;53.356;-1.748;2024-03-08T12:01:08;30.70;;;20.63;;
69256;SDS011;56376;53.356;-1.748;2024-03-08T12:03:42;29.23;;;21.30;;
69256;SDS011;56376;53.356;-1.748;2024-03-08T12:06:08;32.23;;;22.43;;
69256;SDS011;56376;53.356;-1.748;2024-03-08T12:08:37;31.33;;;20.47;;
69256;SDS011;56376;53.356;-1.748;2024-03-08T12:11:05;33.43;;;22.33;;
69256;SDS011;56376;53.356;-1.748;2024-03-08T12:13:32;30.97;;;22.13;;
69256;SDS011;56376;53.356;-1.748;2024-03-08T12:15:59;32.73;;;21.90;;
69256;SDS011;56376;53.356;-1.748;2024-03-08T12:18:37;32.47;;;23.57;;
69256;SDS011;56376;53.356;-1.748;2024-03-08T12:21:06;33.77;;;22.60;;
69256;SDS011;56376;53.356;-1.748;2024-03-08T12:23:36;30.30;;;21.37;;
69256;SDS011;56376;53.356;-1.748;2024-03-08T12:26:13;32.23;;;22.07;;
69256;SDS011;56376;53.356;-1.748;2024-03-08T12:28:41;33.40;;;22.40;;
69256;SDS011;56376;53.356;-1.748;2024-03-08T12:31:12;35.50;;;21.63;;
69256;SDS011;56376;53.356;-1.748;2024-03-08T12:33:54;33.73;;;21.73;;
69256;SDS011;56376;53.356;-1.748;2024-03-08T12:36:24;30.83;;;23.40;;
69256;SDS011;56376;53.356;-1.748;2024-03-08T12:38:50;31.03;;;22.30;;
69256;SDS011;56376;53.356;-1.748;2024-03-08T12:41:16;32.37;;;21.47;;
69256;SDS011;56376;53.356;-1.748;2024-03-08T12:43:45;29.67;;;19.93;;
69256;SDS011;56376;53.356;-1.748;2024-03-08T12:46:22;32.63;;;22.80;;
69256;SDS011;56376;53.356;-1.748;2024-03-08T12:48:51;31.10;;;21.43;;
69256;SDS011;56376;53.356;-1.748;2024-03-08T12:51:19;32.70;;;22.93;;
69256;SDS011;56376;53.356;-1.748;2024-03-08T12:53:48;31.37;;;20.57;;
69256;SDS011;56376;53.356;-1.748;2024-03-08T12:56:36;32.13;;;20.17;;
69256;SDS011;56376;53.356;-1.748;2024-03-08T12:59:02;31.90;;;21.47;;
69256;SDS011;56376;53.356;-1.748;2024-03-08T13:01:29;26.40;;;19.40;;
69256;SDS011;56376;53.356;-1.748;2024-03-08T13:03:57;30.40;;;21.33;;
69256;SDS011;56376;53.356;-1.748;2024-03-08T13:06:23;29.43;;;21.83;;
69256;SDS011;56376;53.356;-1.748;2024-03-08T13:08:52;32.30;;;21.57;;
69256;SDS011;56376;53.356;-1.748;2024-03-08T13:11:18;30.93;;;20.73;;
69256;SDS011;56376;53.356;-1.748;2024-03-08T13:13:45;30.73;;;21.20;;
69256;SDS011;56376;53.356;-1.748;2024-03-08T13:16:11;27.83;;;20.80;;
69256;SDS011;56376;53.356;-1.748;2024-03-08T13:18:40;33.07;;;21.20;;
69256;SDS011;56376;53.356;-1.748;2024-03-08T13:21:09;29.97;;;19.63;;
69256;SDS011;56376;53.356;-1.748;2024-03-08T13:23:36;27.10;;;19.80;;
69256;SDS011;56376;53.356;-1.748;2024-03-08T13:26:08;29.47;;;20.60;;
69256;SDS011;56376;53.356;-1.748;2024-03-08T13:28:40;23.17;;;18.33;;
69256;SDS011;56376;53.356;-1.748;2024-03-08T13:31:13;29.67;;;18.60;;
69256;SDS011;56376;53.356;-1.748;2024-03-08T13:33:40;29.57;;;19.20;;
69256;SDS011;56376;53.356;-1.748;2024-03-08T13:36:07;26.33;;;18.67;;
69256;SDS011;56376;53.356;-1.748;2024-03-08T13:38:40;27.73;;;20.97;;
69256;SDS011;56376;53.356;-1.748;2024-03-08T13:41:07;30.00;;;20.57;;
69256;SDS011;56376;53.356;-1.748;2024-03-08T13:43:33;33.90;;;22.00;;
69256;SDS011;56376;53.356;-1.748;2024-03-08T13:46:01;24.40;;;18.17;;
69256;SDS011;56376;53.356;-1.748;2024-03-08T13:48:27;24.40;;;17.83;;
69256;SDS011;56376;53.356;-1.748;2024-03-08T13:50:52;31.90;;;20.53;;
69256;SDS011;56376;53.356;-1.748;2024-03-08T13:53:19;31.17;;;21.50;;
69256;SDS011;56376;53.356;-1.748;2024-03-08T13:55:44;31.63;;;22.10;;
69256;SDS011;56376;53.356;-1.748;2024-03-08T13:58:10;33.53;;;20.70;;
69256;SDS011;56376;53.356;-1.748;2024-03-08T14:00:39;29.33;;;21.53;;
69256;SDS011;56376;53.356;-1.748;2024-03-08T14:03:07;30.60;;;22.33;;
69256;SDS011;56376;53.356;-1.748;2024-03-08T14:05:35;28.70;;;21.47;;
69256;SDS011;56376;53.356;-1.748;2024-03-08T14:08:04;27.30;;;19.20;;
69256;SDS011;56376;53.356;-1.748;2024-03-08T14:10:32;29.10;;;20.23;;
69256;SDS011;56376;53.356;-1.748;2024-03-08T14:13:02;30.33;;;21.63;;
69256;SDS011;56376;53.356;-1.748;2024-03-08T14:15:30;32.03;;;22.63;;
69256;SDS011;56376;53.356;-1.748;2024-03-08T14:17:59;28.20;;;20.83;;
69256;SDS011;56376;53.356;-1.748;2024-03-08T14:20:26;31.23;;;21.53;;
69256;SDS011;56376;53.356;-1.748;2024-03-08T14:22:55;27.97;;;20.63;;
69256;SDS011;56376;53.356;-1.748;2024-03-08T14:25:21;27.90;;;20.93;;
69256;SDS011;56376;53.356;-1.748;2024-03-08T14:27:49;38.80;;;25.47;;
69256;SDS011;56376;53.356;-1.748;2024-03-08T14:30:18;29.73;;;22.53;;